createdAt,value
2023-04-24T00:00:52.103Z,96093.28
2023-04-24T00:05:45.479Z,96085.53
2023-04-24T00:10:40.219Z,96082.38
2023-04-24T00:15:34.058Z,96076.50
2023-04-24T00:20:27.389Z,96080.75
2023-04-24T00:25:20.799Z,96085.75
2023-04-24T00:30:16.005Z,96081.13
2023-04-24T00:35:10.100Z,96079.06
2023-04-24T00:40:03.670Z,96078.38
2023-04-24T00:44:58.598Z,96089.03
2023-04-24T00:49:53.403Z,96076.22
2023-04-24T00:54:47.129Z,96069.59
2023-04-24T00:59:42.227Z,96050.63
2023-04-24T01:04:39.515Z,96067.59
2023-04-24T01:09:34.258Z,96066.78
2023-04-24T01:14:27.870Z,96073.09
2023-04-24T01:19:21.839Z,96082.16
2023-04-24T01:24:16.833Z,96089.19
2023-04-24T01:29:11.514Z,96077.47
2023-04-24T01:34:05.656Z,96069.59
2023-04-24T01:38:59.093Z,96077.06
2023-04-24T01:43:54.073Z,96079.03
2023-04-24T01:48:48.005Z,96079.31
2023-04-24T01:53:41.362Z,96070.22
2023-04-24T01:58:34.780Z,96082.34
2023-04-24T02:03:29.763Z,96077.13
2023-04-24T02:08:23.264Z,96078.25
2023-04-24T02:13:16.603Z,96088.06
2023-04-24T02:18:09.866Z,96078.22
2023-04-24T02:23:04.558Z,96089.44
2023-04-24T02:27:57.881Z,96087.50
2023-04-24T02:32:51.313Z,96089.44
2023-04-24T02:37:44.656Z,96089.59
2023-04-24T02:42:39.350Z,96086.53
2023-04-24T02:47:32.882Z,96089.72
2023-04-24T02:52:26.247Z,96082.66
2023-04-24T02:57:19.574Z,96081.00
2023-04-24T03:02:14.412Z,96085.16
2023-04-24T03:07:07.916Z,96080.44
2023-04-24T03:12:01.451Z,96076.34
2023-04-24T03:16:54.751Z,96081.84
2023-04-24T03:21:49.534Z,96080.19
2023-04-24T03:26:42.898Z,96078.94
2023-04-24T03:31:36.206Z,96083.50
2023-04-24T03:36:29.544Z,96095.38
2023-04-24T03:41:24.244Z,96096.75
2023-04-24T03:46:17.732Z,96099.78
2023-04-24T03:51:11.097Z,96111.09
2023-04-24T03:56:04.509Z,96109.81
2023-04-24T04:00:59.279Z,96106.63
2023-04-24T04:05:52.764Z,96097.28
2023-04-24T04:10:46.031Z,96105.56
2023-04-24T04:15:39.435Z,96113.44
2023-04-24T04:20:34.160Z,96118.53
2023-04-24T04:25:27.737Z,96115.19
2023-04-24T04:30:22.131Z,96120.47
2023-04-24T04:35:15.547Z,96117.44
2023-04-24T04:40:12.923Z,96116.06
2023-04-24T04:45:07.322Z,96122.94
2023-04-24T04:50:00.707Z,96120.47
2023-04-24T04:54:54.056Z,96118.91
2023-04-24T04:59:48.780Z,96133.00
2023-04-24T05:04:42.464Z,96151.91
2023-04-24T05:09:35.919Z,96163.09
2023-04-24T05:14:31.157Z,96176.47
2023-04-24T05:19:25.942Z,96199.50
2023-04-24T05:24:19.377Z,96194.97
2023-04-24T05:29:12.987Z,96203.38
2023-04-24T05:34:06.594Z,96198.94
2023-04-24T05:39:01.287Z,96199.06
2023-04-24T05:43:54.675Z,96181.38
2023-04-24T05:48:47.924Z,96182.94
2023-04-24T05:53:41.347Z,96184.19
2023-04-24T05:58:38.941Z,96192.50
2023-04-24T06:03:32.610Z,96214.00
2023-04-24T06:08:26.666Z,96216.69
2023-04-24T06:13:20.182Z,96225.75
2023-04-24T06:18:22.529Z,96232.78
2023-04-24T06:23:16.118Z,96233.91
2023-04-24T06:28:09.407Z,96235.59
2023-04-24T06:33:18.744Z,96254.38
2023-04-24T06:38:14.579Z,96269.25
2023-04-24T06:43:07.919Z,96271.06
2023-04-24T06:48:19.230Z,96268.22
2023-04-24T06:53:15.440Z,96284.41
2023-04-24T06:58:09.093Z,96294.91
2023-04-24T07:03:03.615Z,96292.59
2023-04-24T07:07:59.306Z,96301.44
2023-04-24T07:12:55.351Z,96295.06
2023-04-24T07:17:48.750Z,96314.44
2023-04-24T07:22:42.271Z,96317.63
2023-04-24T07:27:36.978Z,96342.50
2023-04-24T07:32:31.907Z,96345.06
2023-04-24T07:37:25.939Z,96345.94
2023-04-24T07:42:19.277Z,96353.50
2023-04-24T07:47:12.590Z,96373.22
2023-04-24T07:52:07.304Z,96363.22
2023-04-24T07:57:01.346Z,96376.38
2023-04-24T08:01:55.193Z,96383.16
2023-04-24T08:06:50.254Z,96387.03
2023-04-24T08:11:45.683Z,96405.56
2023-04-24T08:16:39.147Z,96410.59
2023-04-24T08:21:32.936Z,96421.81
2023-04-24T08:26:26.479Z,96434.78
2023-04-24T08:31:21.306Z,96437.34
2023-04-24T08:36:14.713Z,96438.88
2023-04-24T08:41:10.057Z,96446.13
2023-04-24T08:46:06.580Z,96455.25
2023-04-24T08:51:09.017Z,96457.59
2023-04-24T08:56:04.520Z,96463.63
2023-04-24T09:00:58.555Z,96455.97
2023-04-24T09:05:55.386Z,96464.50
2023-04-24T09:10:51.274Z,96460.75
2023-04-24T09:15:45.840Z,96466.03
2023-04-24T09:21:05.309Z,96469.63
2023-04-24T09:26:02.731Z,96480.13
2023-04-24T09:31:08.066Z,96487.22
2023-04-24T09:36:01.601Z,96465.44
2023-04-24T09:40:54.981Z,96461.81
2023-04-24T09:45:49.656Z,96471.53
2023-04-24T09:50:49.168Z,96476.28
2023-04-24T09:55:49.581Z,96479.31
2023-04-24T10:00:42.961Z,96481.94
2023-04-24T10:05:39.801Z,96484.84
2023-04-24T10:10:34.714Z,96477.63
2023-04-24T10:15:29.587Z,96477.50
2023-04-24T10:20:25.542Z,96476.94
2023-04-24T10:25:22.826Z,96476.88
2023-04-24T10:30:17.731Z,96492.84
2023-04-24T10:35:14.118Z,96483.47
2023-04-24T10:40:10.733Z,96510.72
2023-04-24T10:45:18.198Z,96508.63
2023-04-24T10:50:12.922Z,96506.59
2023-04-24T10:55:07.806Z,96502.56
2023-04-24T11:00:21.776Z,96502.78
2023-04-24T11:05:18.408Z,96499.97
2023-04-24T11:10:28.398Z,96482.38
2023-04-24T11:15:23.142Z,96494.06
2023-04-24T11:25:18.780Z,96494.47
2023-04-24T11:30:13.250Z,96505.69
2023-04-24T11:35:15.970Z,96517.03
2023-04-24T11:40:12.496Z,96518.06
2023-04-24T11:45:11.747Z,96511.81
2023-04-24T11:50:09.803Z,96508.50
2023-04-24T11:55:03.309Z,96510.84
2023-04-24T11:59:57.333Z,96500.22
2023-04-24T12:04:51.049Z,96523.84
2023-04-24T12:09:50.199Z,96524.66
2023-04-24T12:14:47.102Z,96528.44
2023-04-24T12:19:40.672Z,96536.00
2023-04-24T12:24:34.393Z,96535.66
2023-04-24T12:29:29.149Z,96531.25
2023-04-24T12:34:26.041Z,96541.50
2023-04-24T12:39:20.655Z,96521.72
2023-04-24T12:44:14.343Z,96526.03
2023-04-24T12:49:09.102Z,96532.03
2023-04-24T12:54:02.509Z,96501.84
2023-04-24T12:58:55.791Z,96515.75
2023-04-24T13:03:49.722Z,96504.03
2023-04-24T13:08:44.484Z,96512.25
2023-04-24T13:13:37.826Z,96499.41
2023-04-24T13:18:31.167Z,96512.25
2023-04-24T13:23:24.962Z,96498.00
2023-04-24T13:28:19.630Z,96506.09
2023-04-24T13:33:13.115Z,96488.25
2023-04-24T13:38:07.703Z,96492.72
2023-04-24T13:43:01.750Z,96493.06
2023-04-24T13:47:58.032Z,96491.84
2023-04-24T13:52:51.537Z,96479.03
2023-04-24T13:57:45.049Z,96479.25
2023-04-24T14:02:38.583Z,96481.00
2023-04-24T14:07:33.467Z,96462.16
2023-04-24T14:12:26.988Z,96484.94
2023-04-24T14:17:20.382Z,96449.28
2023-04-24T14:22:13.648Z,96466.00
2023-04-24T14:27:08.394Z,96455.72
2023-04-24T14:32:01.882Z,96481.09
2023-04-24T14:36:56.006Z,96475.44
2023-04-24T14:41:49.343Z,96485.28
2023-04-24T14:46:44.521Z,96479.31
2023-04-24T14:51:37.984Z,96476.06
2023-04-24T14:56:31.389Z,96483.41
2023-04-24T15:01:25.163Z,96488.19
2023-04-24T15:06:21.177Z,96500.34
2023-04-24T15:11:14.839Z,96491.53
2023-04-24T15:16:08.445Z,96499.75
2023-04-24T15:21:01.844Z,96516.53
2023-04-24T15:25:57.035Z,96522.22
2023-04-24T15:30:50.483Z,96506.28
2023-04-24T15:35:43.891Z,96492.75
2023-04-24T15:40:37.218Z,96470.97
2023-04-24T15:45:33.211Z,96479.25
2023-04-24T15:50:27.928Z,96471.44
2023-04-24T15:55:21.589Z,96471.94
2023-04-24T16:00:16.342Z,96471.31
2023-04-24T16:05:12.478Z,96488.47
2023-04-24T16:10:06.959Z,96478.63
2023-04-24T16:15:04.217Z,96477.22
2023-04-24T16:19:57.587Z,96479.47
2023-04-24T16:24:52.288Z,96471.25
2023-04-24T16:29:48.498Z,96467.06
2023-04-24T16:34:41.893Z,96479.53
2023-04-24T16:39:35.776Z,96465.59
2023-04-24T16:44:30.496Z,96477.34
2023-04-24T16:49:24.775Z,96480.44
2023-04-24T16:54:18.640Z,96478.84
2023-04-24T16:59:14.455Z,96489.28
2023-04-24T17:04:09.368Z,96495.13
2023-04-24T17:09:03.794Z,96491.31
2023-04-24T17:13:59.543Z,96505.59
2023-04-24T17:18:53.190Z,96506.28
2023-04-24T17:23:47.833Z,96498.53
2023-04-24T17:28:41.284Z,96497.25
2023-04-24T17:33:34.777Z,96484.25
2023-04-24T17:38:28.778Z,96509.75
2023-04-24T17:43:24.689Z,96509.19
2023-04-24T17:48:20.029Z,96501.31
2023-04-24T17:53:18.804Z,96509.34
2023-04-24T17:58:12.393Z,96509.91
2023-04-24T18:03:09.831Z,96529.13
2023-04-24T18:08:04.282Z,96524.16
2023-04-24T18:12:57.893Z,96527.16
2023-04-24T18:17:51.425Z,96518.84
2023-04-24T18:22:47.465Z,96527.00
2023-04-24T18:27:42.723Z,96539.16
2023-04-24T18:32:36.734Z,96536.91
2023-04-24T18:37:30.208Z,96549.59
2023-04-24T18:42:25.157Z,96548.84
2023-04-24T18:47:18.636Z,96553.81
2023-04-24T18:52:11.985Z,96561.84
2023-04-24T18:57:05.435Z,96566.22
2023-04-24T19:02:00.646Z,96561.88
2023-04-24T19:06:54.028Z,96556.78
2023-04-24T19:11:47.703Z,96573.22
2023-04-24T19:16:41.805Z,96581.97
2023-04-24T19:21:37.171Z,96595.41
2023-04-24T19:26:34.376Z,96598.16
2023-04-24T19:31:28.891Z,96600.66
2023-04-24T19:36:22.345Z,96603.66
2023-04-24T19:41:17.380Z,96601.16
2023-04-24T19:46:11.279Z,96601.13
2023-04-24T19:51:04.908Z,96601.50
2023-04-24T19:55:58.247Z,96592.09
2023-04-24T20:00:53.285Z,96601.31
2023-04-24T20:05:46.656Z,96598.53
2023-04-24T20:10:40.042Z,96604.66
2023-04-24T20:15:36.354Z,96602.41
2023-04-24T20:20:34.768Z,96609.50
2023-04-24T20:25:28.564Z,96606.63
2023-04-24T20:30:21.984Z,96609.66
2023-04-24T20:35:15.332Z,96606.56
2023-04-24T20:40:13.739Z,96604.28
2023-04-24T20:45:08.581Z,96602.34
2023-04-24T20:50:04.298Z,96602.91
2023-04-24T20:54:57.584Z,96602.38
2023-04-24T20:59:52.219Z,96594.09
2023-04-24T21:04:45.923Z,96603.06
2023-04-24T21:09:39.226Z,96593.41
2023-04-24T21:14:32.475Z,96599.28
2023-04-24T21:19:27.207Z,96589.84
2023-04-24T21:24:20.544Z,96582.16
2023-04-24T21:29:14.109Z,96573.56
2023-04-24T21:34:07.443Z,96570.66
2023-04-24T21:39:02.213Z,96569.56
2023-04-24T21:43:55.805Z,96571.50
2023-04-24T21:48:49.528Z,96565.47
2023-04-24T21:53:42.816Z,96563.88
2023-04-24T21:58:38.177Z,96565.81
2023-04-24T22:03:31.617Z,96558.06
2023-04-24T22:08:26.251Z,96560.00
2023-04-24T22:13:19.616Z,96553.00
2023-04-24T22:18:14.330Z,96560.03
2023-04-24T22:23:07.734Z,96550.28
2023-04-24T22:28:01.295Z,96539.91
2023-04-24T22:32:54.733Z,96536.97
2023-04-24T22:37:55.371Z,96539.31
2023-04-24T22:42:48.874Z,96542.88
2023-04-24T22:47:42.479Z,96525.38
2023-04-24T22:52:36.816Z,96513.88
2023-04-24T22:57:31.662Z,96514.53
2023-04-24T23:02:28.737Z,96505.66
2023-04-24T23:07:22.268Z,96504.81
2023-04-24T23:12:15.632Z,96500.91
2023-04-24T23:17:10.352Z,96501.59
2023-04-24T23:22:03.788Z,96487.66
2023-04-24T23:27:00.119Z,96500.31
2023-04-24T23:31:53.750Z,96503.13
2023-04-24T23:36:48.873Z,96491.00
2023-04-24T23:41:43.205Z,96489.97
2023-04-24T23:46:36.593Z,96488.19
2023-04-24T23:51:30.026Z,96497.88
2023-04-24T23:56:27.011Z,96498.72
